sensor_id;sensor_type;location;lat;lon;timestamp;pressure;altitude;pressure_sealevel;temperature;humidity
43707;BME280;61348;53.392;-6.248;2023-03-03T00:01:47;102311.97;;;6.19;73.39
43707;BME280;61348;53.392;-6.248;2023-03-03T00:04:13;102317.47;;;6.19;73.43
43707;BME280;61348;53.392;-6.248;2023-03-03T00:06:40;102310.84;;;6.20;73.65
43707;BME280;61348;53.392;-6.248;2023-03-03T00:09:07;102308.94;;;6.21;73.48
43707;BME280;61348;53.392;-6.248;2023-03-03T00:11:33;102321.31;;;6.18;73.48
43707;BME280;61348;53.392;-6.248;2023-03-03T00:14:00;102315.81;;;6.18;73.47
43707;BME280;61348;53.392;-6.248;2023-03-03T00:16:34;102318.28;;;6.20;73.38
43707;BME280;61348;53.392;-6.248;2023-03-03T00:19:06;102322.16;;;6.19;73.28
43707;BME280;61348;53.392;-6.248;2023-03-03T00:21:44;102318.28;;;6.20;73.56
43707;BME280;61348;53.392;-6.248;2023-03-03T00:24:23;102321.31;;;6.18;73.48
43707;BME280;61348;53.392;-6.248;2023-03-03T00:29:32;102311.41;;;6.17;73.46
43707;BME280;61348;53.392;-6.248;2023-03-03T00:32:22;102316.91;;;6.17;73.38
43707;BME280;61348;53.392;-6.248;2023-03-03T00:34:52;102315.28;;;6.16;73.58
43707;BME280;61348;53.392;-6.248;2023-03-03T00:39:52;102321.59;;;6.17;73.55
43707;BME280;61348;53.392;-6.248;2023-03-03T00:42:18;102318.84;;;6.17;73.41
43707;BME280;61348;53.392;-6.248;2023-03-03T00:44:57;102321.03;;;6.14;73.41
43707;BME280;61348;53.392;-6.248;2023-03-03T00:52:39;102322.72;;;6.10;73.15
43707;BME280;61348;53.392;-6.248;2023-03-03T00:55:07;102314.47;;;6.10;72.84
43707;BME280;61348;53.392;-6.248;2023-03-03T00:57:33;102311.41;;;6.12;72.89
43707;BME280;61348;53.392;-6.248;2023-03-03T01:00:00;102313.06;;;6.13;72.83
43707;BME280;61348;53.392;-6.248;2023-03-03T01:02:27;102312.25;;;6.12;72.87
43707;BME280;61348;53.392;-6.248;2023-03-03T01:04:54;102313.38;;;6.11;72.53
43707;BME280;61348;53.392;-6.248;2023-03-03T01:07:22;102311.16;;;6.13;72.61
43707;BME280;61348;53.392;-6.248;2023-03-03T01:09:49;102310.31;;;6.13;72.46
43707;BME280;61348;53.392;-6.248;2023-03-03T01:12:16;102316.91;;;6.12;72.53
43707;BME280;61348;53.392;-6.248;2023-03-03T01:14:42;102315.28;;;6.11;72.72
43707;BME280;61348;53.392;-6.248;2023-03-03T01:17:10;102322.16;;;6.13;72.47
43707;BME280;61348;53.392;-6.248;2023-03-03T01:19:37;102318.28;;;6.14;72.56
43707;BME280;61348;53.392;-6.248;2023-03-03T01:22:04;102317.19;;;6.16;72.36
43707;BME280;61348;53.392;-6.248;2023-03-03T01:24:30;102314.16;;;6.17;72.35
43707;BME280;61348;53.392;-6.248;2023-03-03T01:26:57;102314.16;;;6.17;72.44
43707;BME280;61348;53.392;-6.248;2023-03-03T01:29:24;102318.03;;;6.16;72.22
43707;BME280;61348;53.392;-6.248;2023-03-03T01:31:50;102319.66;;;6.17;72.22
43707;BME280;61348;53.392;-6.248;2023-03-03T01:34:17;102322.16;;;6.19;72.33
43707;BME280;61348;53.392;-6.248;2023-03-03T01:36:44;102311.97;;;6.19;72.33
43707;BME280;61348;53.392;-6.248;2023-03-03T01:39:10;102316.66;;;6.19;72.33
43707;BME280;61348;53.392;-6.248;2023-03-03T01:41:38;102317.47;;;6.19;72.31
43707;BME280;61348;53.392;-6.248;2023-03-03T01:44:04;102312.78;;;6.20;72.38
43707;BME280;61348;53.392;-6.248;2023-03-03T01:46:52;102311.97;;;6.19;72.18
43707;BME280;61348;53.392;-6.248;2023-03-03T01:50:22;102315.25;;;6.21;72.45
43707;BME280;61348;53.392;-6.248;2023-03-03T01:52:31;102311.69;;;6.21;72.29
43707;BME280;61348;53.392;-6.248;2023-03-03T01:55:07;102317.47;;;6.19;72.43
43707;BME280;61348;53.392;-6.248;2023-03-03T01:57:46;102311.97;;;6.19;72.55
43707;BME280;61348;53.392;-6.248;2023-03-03T02:00:14;102320.22;;;6.19;72.42
43707;BME280;61348;53.392;-6.248;2023-03-03T02:02:42;102317.47;;;6.19;72.60
43707;BME280;61348;53.392;-6.248;2023-03-03T02:05:10;102315.28;;;6.16;72.65
43707;BME280;61348;53.392;-6.248;2023-03-03T02:07:37;102312.53;;;6.16;72.86
43707;BME280;61348;53.392;-6.248;2023-03-03T02:10:12;102307.84;;;6.17;72.58
43707;BME280;61348;53.392;-6.248;2023-03-03T02:12:44;102316.38;;;6.15;72.66
43707;BME280;61348;53.392;-6.248;2023-03-03T02:15:21;102316.38;;;6.15;72.79
43707;BME280;61348;53.392;-6.248;2023-03-03T02:17:57;102313.34;;;6.17;72.96
43707;BME280;61348;53.392;-6.248;2023-03-03T02:20:31;102324.63;;;6.15;72.80
43707;BME280;61348;53.392;-6.248;2023-03-03T02:25:38;102318.56;;;6.13;72.80
43707;BME280;61348;53.392;-6.248;2023-03-03T02:28:07;102320.50;;;6.12;72.38
43707;BME280;61348;53.392;-6.248;2023-03-03T02:30:37;102312.25;;;6.12;72.66
43707;BME280;61348;53.392;-6.248;2023-03-03T02:33:05;102312.00;;;6.14;72.53
43707;BME280;61348;53.392;-6.248;2023-03-03T02:35:36;102316.13;;;6.11;72.74
43707;BME280;61348;53.392;-6.248;2023-03-03T02:38:16;102313.38;;;6.11;72.72
43707;BME280;61348;53.392;-6.248;2023-03-03T02:43:55;102318.28;;;6.09;72.68
43707;BME280;61348;53.392;-6.248;2023-03-03T02:46:24;102321.03;;;6.09;72.80
43707;BME280;61348;53.392;-6.248;2023-03-03T02:48:51;102320.78;;;6.11;72.93
43707;BME280;61348;53.392;-6.248;2023-03-03T02:51:18;102325.47;;;6.10;72.86
43707;BME280;61348;53.392;-6.248;2023-03-03T02:53:45;102318.03;;;6.11;73.06
43707;BME280;61348;53.392;-6.248;2023-03-03T02:56:12;102326.28;;;6.11;72.95
43707;BME280;61348;53.392;-6.248;2023-03-03T02:58:39;102322.41;;;6.12;73.02
43707;BME280;61348;53.392;-6.248;2023-03-03T03:01:06;102323.78;;;6.14;73.20
43707;BME280;61348;53.392;-6.248;2023-03-03T03:03:33;102328.19;;;6.16;73.29
43707;BME280;61348;53.392;-6.248;2023-03-03T03:05:59;102321.88;;;6.15;73.20
43707;BME280;61348;53.392;-6.248;2023-03-03T03:08:26;102321.88;;;6.15;73.54
43707;BME280;61348;53.392;-6.248;2023-03-03T03:10:53;102324.06;;;6.13;73.57
43707;BME280;61348;53.392;-6.248;2023-03-03T03:13:19;102326.00;;;6.12;73.47
43707;BME280;61348;53.392;-6.248;2023-03-03T03:15:46;102323.25;;;6.12;73.68
43707;BME280;61348;53.392;-6.248;2023-03-03T03:18:14;102324.06;;;6.13;73.59
43707;BME280;61348;53.392;-6.248;2023-03-03T03:20:40;102320.78;;;6.11;73.57
43707;BME280;61348;53.392;-6.248;2023-03-03T03:23:08;102314.47;;;6.10;73.83
43707;BME280;61348;53.392;-6.248;2023-03-03T03:25:35;102318.88;;;6.11;73.78
43707;BME280;61348;53.392;-6.248;2023-03-03T03:28:08;102319.13;;;6.10;73.87
43707;BME280;61348;53.392;-6.248;2023-03-03T03:30:35;102326.53;;;6.09;73.96
43707;BME280;61348;53.392;-6.248;2023-03-03T03:33:03;102319.69;;;6.07;73.77
43707;BME280;61348;53.392;-6.248;2023-03-03T03:35:31;102321.34;;;6.03;73.79
43707;BME280;61348;53.392;-6.248;2023-03-03T03:37:58;102317.47;;;5.99;73.78
43707;BME280;61348;53.392;-6.248;2023-03-03T03:40:25;102315.84;;;5.98;73.91
43707;BME280;61348;53.392;-6.248;2023-03-03T03:42:52;102319.69;;;5.97;73.93
43707;BME280;61348;53.392;-6.248;2023-03-03T03:45:19;102312.53;;;5.96;74.04
43707;BME280;61348;53.392;-6.248;2023-03-03T03:47:48;102315.84;;;5.98;74.12
43707;BME280;61348;53.392;-6.248;2023-03-03T03:50:14;102310.91;;;6.00;73.99
43707;BME280;61348;53.392;-6.248;2023-03-03T03:52:41;102312.56;;;6.01;74.14
43707;BME280;61348;53.392;-6.248;2023-03-03T03:55:09;102302.09;;;5.98;74.13
43707;BME280;61348;53.392;-6.248;2023-03-03T03:57:36;102307.03;;;5.96;74.17
43707;BME280;61348;53.392;-6.248;2023-03-03T04:00:04;102303.75;;;5.94;74.25
43707;BME280;61348;53.392;-6.248;2023-03-03T04:02:31;102305.66;;;5.93;74.57
43707;BME280;61348;53.392;-6.248;2023-03-03T04:04:58;102306.78;;;5.92;74.80
43707;BME280;61348;53.392;-6.248;2023-03-03T04:07:24;102304.03;;;5.92;74.70
43707;BME280;61348;53.392;-6.248;2023-03-03T04:09:51;102294.66;;;5.93;74.92
43707;BME280;61348;53.392;-6.248;2023-03-03T04:12:18;102303.75;;;5.94;74.93
43707;BME280;61348;53.392;-6.248;2023-03-03T04:14:45;102302.66;;;5.95;74.89
43707;BME280;61348;53.392;-6.248;2023-03-03T04:17:16;102310.91;;;5.95;75.22
43707;BME280;61348;53.392;-6.248;2023-03-03T04:19:43;102307.31;;;5.94;75.09
43707;BME280;61348;53.392;-6.248;2023-03-03T04:22:11;102311.44;;;5.92;75.36
43707;BME280;61348;53.392;-6.248;2023-03-03T04:24:39;102322.16;;;5.88;75.23
43707;BME280;61348;53.392;-6.248;2023-03-03T04:27:06;102322.16;;;5.88;75.35
43707;BME280;61348;53.392;-6.248;2023-03-03T04:29:34;102319.72;;;5.87;75.17
43707;BME280;61348;53.392;-6.248;2023-03-03T04:32:01;102319.16;;;5.85;75.32
43707;BME280;61348;53.392;-6.248;2023-03-03T04:34:28;102319.16;;;5.85;75.47
43707;BME280;61348;53.392;-6.248;2023-03-03T04:36:54;102321.03;;;5.84;75.32
43707;BME280;61348;53.392;-6.248;2023-03-03T04:39:21;102316.41;;;5.85;75.73
43707;BME280;61348;53.392;-6.248;2023-03-03T04:41:48;102322.72;;;5.85;75.50
43707;BME280;61348;53.392;-6.248;2023-03-03T04:44:15;102319.72;;;5.87;75.90
43707;BME280;61348;53.392;-6.248;2023-03-03T04:46:41;102327.94;;;5.87;76.05
43707;BME280;61348;53.392;-6.248;2023-03-03T04:49:08;102329.88;;;5.86;75.73
43707;BME280;61348;53.392;-6.248;2023-03-03T04:51:37;102318.88;;;5.86;76.04
43707;BME280;61348;53.392;-6.248;2023-03-03T04:54:05;102318.03;;;5.86;75.96
43707;BME280;61348;53.392;-6.248;2023-03-03T04:56:32;102324.38;;;5.86;75.87
43707;BME280;61348;53.392;-6.248;2023-03-03T04:58:58;102322.44;;;5.87;75.85
43707;BME280;61348;53.392;-6.248;2023-03-03T05:01:25;102319.72;;;5.87;75.97
43707;BME280;61348;53.392;-6.248;2023-03-03T05:03:52;102317.22;;;5.85;76.26
43707;BME280;61348;53.392;-6.248;2023-03-03T05:06:20;102322.44;;;5.87;76.36
43707;BME280;61348;53.392;-6.248;2023-03-03T05:08:46;102324.38;;;5.86;76.47
43707;BME280;61348;53.392;-6.248;2023-03-03T05:11:13;102318.03;;;5.86;76.59
43707;BME280;61348;53.392;-6.248;2023-03-03T05:13:40;102321.91;;;5.85;76.65
43707;BME280;61348;53.392;-6.248;2023-03-03T05:16:06;102324.88;;;5.83;76.43
43707;BME280;61348;53.392;-6.248;2023-03-03T05:18:33;102321.59;;;5.81;76.60
43707;BME280;61348;53.392;-6.248;2023-03-03T05:21:00;102315.81;;;5.83;76.81
43707;BME280;61348;53.392;-6.248;2023-03-03T05:23:27;102315.81;;;5.83;76.87
43707;BME280;61348;53.392;-6.248;2023-03-03T05:25:54;102327.41;;;5.85;77.11
43707;BME280;61348;53.392;-6.248;2023-03-03T05:28:21;102325.72;;;5.84;77.18
43707;BME280;61348;53.392;-6.248;2023-03-03T05:30:48;102324.06;;;5.83;77.13
43707;BME280;61348;53.392;-6.248;2023-03-03T05:33:15;102319.38;;;5.83;77.10
43707;BME280;61348;53.392;-6.248;2023-03-03T05:35:43;102325.72;;;5.84;77.46
43707;BME280;61348;53.392;-6.248;2023-03-03T05:38:10;102319.69;;;5.82;77.34
43707;BME280;61348;53.392;-6.248;2023-03-03T05:40:37;102329.56;;;5.83;77.53
43707;BME280;61348;53.392;-6.248;2023-03-03T05:43:04;102325.72;;;5.84;77.26
43707;BME280;61348;53.392;-6.248;2023-03-03T05:45:32;102320.50;;;5.82;77.54
43707;BME280;61348;53.392;-6.248;2023-03-03T05:48:00;102319.38;;;5.83;77.60
43707;BME280;61348;53.392;-6.248;2023-03-03T05:50:26;102325.72;;;5.84;77.56
43707;BME280;61348;53.392;-6.248;2023-03-03T05:52:55;102325.72;;;5.84;77.61
43707;BME280;61348;53.392;-6.248;2023-03-03T05:55:21;102319.16;;;5.85;77.63
43707;BME280;61348;53.392;-6.248;2023-03-03T05:57:48;102320.22;;;5.84;77.73
43707;BME280;61348;53.392;-6.248;2023-03-03T06:00:16;102315.56;;;5.84;78.06
43707;BME280;61348;53.392;-6.248;2023-03-03T06:02:43;102317.22;;;5.85;78.34
43707;BME280;61348;53.392;-6.248;2023-03-03T06:05:09;102315.28;;;5.86;78.18
43707;BME280;61348;53.392;-6.248;2023-03-03T06:07:37;102315.56;;;5.84;78.11
43707;BME280;61348;53.392;-6.248;2023-03-03T06:10:04;102317.47;;;5.84;78.14
43707;BME280;61348;53.392;-6.248;2023-03-03T06:12:31;102321.31;;;5.83;78.46
43707;BME280;61348;53.392;-6.248;2023-03-03T06:14:57;102311.44;;;5.82;78.54
43707;BME280;61348;53.392;-6.248;2023-03-03T06:17:24;102319.69;;;5.82;78.43
43707;BME280;61348;53.392;-6.248;2023-03-03T06:19:51;102315.56;;;5.84;78.58
43707;BME280;61348;53.392;-6.248;2023-03-03T06:22:18;102319.38;;;5.83;78.70
43707;BME280;61348;53.392;-6.248;2023-03-03T06:24:44;102314.72;;;5.84;78.96
43707;BME280;61348;53.392;-6.248;2023-03-03T06:27:11;102320.22;;;5.84;79.12
43707;BME280;61348;53.392;-6.248;2023-03-03T06:29:38;102320.50;;;5.82;79.03
43707;BME280;61348;53.392;-6.248;2023-03-03T06:32:05;102325.72;;;5.84;79.36
43707;BME280;61348;53.392;-6.248;2023-03-03T06:34:36;102326.53;;;5.84;79.16
43707;BME280;61348;53.392;-6.248;2023-03-03T06:37:03;102323.53;;;5.86;79.41
43707;BME280;61348;53.392;-6.248;2023-03-03T06:39:30;102319.72;;;5.87;79.59
43707;BME280;61348;53.392;-6.248;2023-03-03T06:41:57;102332.63;;;5.86;79.50
43707;BME280;61348;53.392;-6.248;2023-03-03T06:44:23;102325.19;;;5.87;79.73
43707;BME280;61348;53.392;-6.248;2023-03-03T06:46:53;102337.81;;;5.88;79.69
43707;BME280;61348;53.392;-6.248;2023-03-03T06:49:22;102340.03;;;5.86;79.83
43707;BME280;61348;53.392;-6.248;2023-03-03T06:51:49;102338.94;;;5.87;79.94
43707;BME280;61348;53.392;-6.248;2023-03-03T06:54:18;102335.38;;;5.86;80.09
43707;BME280;61348;53.392;-6.248;2023-03-03T06:56:46;102339.78;;;5.87;80.05
43707;BME280;61348;53.392;-6.248;2023-03-03T06:59:18;102341.16;;;5.90;80.09
43707;BME280;61348;53.392;-6.248;2023-03-03T07:01:47;102346.66;;;5.90;80.38
43707;BME280;61348;53.392;-6.248;2023-03-03T07:04:31;102348.28;;;5.91;80.26
43707;BME280;61348;53.392;-6.248;2023-03-03T07:07:12;102357.63;;;5.90;80.24
43707;BME280;61348;53.392;-6.248;2023-03-03T07:09:43;102345.28;;;5.87;80.71
43707;BME280;61348;53.392;-6.248;2023-03-03T07:12:14;102348.28;;;5.86;80.72
43707;BME280;61348;53.392;-6.248;2023-03-03T07:14:46;102351.84;;;5.86;80.73
43707;BME280;61348;53.392;-6.248;2023-03-03T07:17:18;102350.47;;;5.89;81.03
43707;BME280;61348;53.392;-6.248;2023-03-03T07:19:46;102347.47;;;5.90;80.83
43707;BME280;61348;53.392;-6.248;2023-03-03T07:22:16;102355.44;;;5.92;81.16
43707;BME280;61348;53.392;-6.248;2023-03-03T07:24:45;102352.69;;;5.92;81.23
43707;BME280;61348;53.392;-6.248;2023-03-03T07:29:49;102358.47;;;5.90;81.34
43707;BME280;61348;53.392;-6.248;2023-03-03T07:34:55;102371.38;;;5.90;81.29
43707;BME280;61348;53.392;-6.248;2023-03-03T07:37:36;102368.63;;;5.90;81.56
43707;BME280;61348;53.392;-6.248;2023-03-03T07:42:47;102384.84;;;5.91;81.36
43707;BME280;61348;53.392;-6.248;2023-03-03T07:45:31;102387.88;;;5.90;81.63
43707;BME280;61348;53.392;-6.248;2023-03-03T07:50:39;102382.91;;;5.92;81.44
43707;BME280;61348;53.392;-6.248;2023-03-03T07:53:33;102387.31;;;5.93;81.38
43707;BME280;61348;53.392;-6.248;2023-03-03T07:56:04;102389.25;;;5.92;81.59
43707;BME280;61348;53.392;-6.248;2023-03-03T07:58:40;102384.84;;;5.96;81.38
43707;BME280;61348;53.392;-6.248;2023-03-03T08:01:36;102384.59;;;5.98;81.50
43707;BME280;61348;53.392;-6.248;2023-03-03T08:04:15;102380.72;;;5.99;81.30
43707;BME280;61348;53.392;-6.248;2023-03-03T08:06:47;102386.50;;;5.97;81.35
43707;BME280;61348;53.392;-6.248;2023-03-03T08:11:52;102400.50;;;5.96;81.34
43707;BME280;61348;53.392;-6.248;2023-03-03T08:14:26;102400.50;;;5.96;81.16
43707;BME280;61348;53.392;-6.248;2023-03-03T08:16:55;102402.16;;;5.97;81.50
43707;BME280;61348;53.392;-6.248;2023-03-03T08:19:25;102399.97;;;5.99;81.39
43707;BME280;61348;53.392;-6.248;2023-03-03T08:21:58;102410.41;;;6.02;81.54
43707;BME280;61348;53.392;-6.248;2023-03-03T08:24:27;102404.91;;;6.02;81.42
43707;BME280;61348;53.392;-6.248;2023-03-03T08:26:54;102414.81;;;6.03;81.64
43707;BME280;61348;53.392;-6.248;2023-03-03T08:29:20;102408.19;;;6.04;81.57
43707;BME280;61348;53.392;-6.248;2023-03-03T08:31:47;102414.53;;;6.04;81.60
43707;BME280;61348;53.392;-6.248;2023-03-03T08:34:14;102417.03;;;6.06;81.43
43707;BME280;61348;53.392;-6.248;2023-03-03T08:36:40;102418.66;;;6.07;81.69
43707;BME280;61348;53.392;-6.248;2023-03-03T08:39:07;102415.38;;;6.05;81.71
43707;BME280;61348;53.392;-6.248;2023-03-03T08:41:34;102423.63;;;6.05;81.72
43707;BME280;61348;53.392;-6.248;2023-03-03T08:44:01;102418.41;;;6.03;81.60
43707;BME280;61348;53.392;-6.248;2023-03-03T08:46:28;102417.56;;;6.03;81.73
43707;BME280;61348;53.392;-6.248;2023-03-03T08:48:55;102422.25;;;6.02;81.75
43707;BME280;61348;53.392;-6.248;2023-03-03T08:51:21;102423.91;;;6.03;81.79
43707;BME280;61348;53.392;-6.248;2023-03-03T08:53:48;102426.38;;;6.05;81.74
43707;BME280;61348;53.392;-6.248;2023-03-03T08:56:15;102426.38;;;6.05;81.74
43707;BME280;61348;53.392;-6.248;2023-03-03T08:58:44;102430.78;;;6.06;81.64
43707;BME280;61348;53.392;-6.248;2023-03-03T09:01:27;102428.56;;;6.03;81.92
43707;BME280;61348;53.392;-6.248;2023-03-03T09:03:54;102427.19;;;6.05;81.79
43707;BME280;61348;53.392;-6.248;2023-03-03T09:06:21;102428.81;;;6.06;81.96
43707;BME280;61348;53.392;-6.248;2023-03-03T09:08:48;102438.44;;;6.09;81.92
43707;BME280;61348;53.392;-6.248;2023-03-03T09:11:23;102435.44;;;6.10;82.04
43707;BME280;61348;53.392;-6.248;2023-03-03T09:14:06;102437.66;;;6.13;82.09
43707;BME280;61348;53.392;-6.248;2023-03-03T09:19:28;102430.22;;;6.14;81.95
43707;BME280;61348;53.392;-6.248;2023-03-03T09:22:17;102444.53;;;6.16;81.95
43707;BME280;61348;53.392;-6.248;2023-03-03T09:24:45;102440.66;;;6.17;81.94
43707;BME280;61348;53.392;-6.248;2023-03-03T09:27:18;102451.09;;;6.20;82.07
43707;BME280;61348;53.392;-6.248;2023-03-03T09:29:48;102454.44;;;6.22;81.89
43707;BME280;61348;53.392;-6.248;2023-03-03T09:32:34;102457.72;;;6.24;81.85
43707;BME280;61348;53.392;-6.248;2023-03-03T09:35:36;102450.56;;;6.28;82.11
43707;BME280;61348;53.392;-6.248;2023-03-03T09:43:54;102464.88;;;6.45;81.70
43707;BME280;61348;53.392;-6.248;2023-03-03T09:55:03;102481.91;;;6.62;81.51
43707;BME280;61348;53.392;-6.248;2023-03-03T10:00:52;102480.53;;;6.70;81.38
43707;BME280;61348;53.392;-6.248;2023-03-03T10:06:17;102474.72;;;6.82;81.10
43707;BME280;61348;53.392;-6.248;2023-03-03T10:11:49;102474.72;;;6.92;81.03
43707;BME280;61348;53.392;-6.248;2023-03-03T10:25:41;102480.44;;;7.15;80.85
43707;BME280;61348;53.392;-6.248;2023-03-03T10:33:56;102491.41;;;7.30;80.68
43707;BME280;61348;53.392;-6.248;2023-03-03T10:42:09;102499.13;;;7.23;80.45
43707;BME280;61348;53.392;-6.248;2023-03-03T10:52:37;102516.31;;;6.90;81.02
43707;BME280;61348;53.392;-6.248;2023-03-03T11:00:50;102513.56;;;6.80;81.45
43707;BME280;61348;53.392;-6.248;2023-03-03T11:06:28;102520.16;;;6.89;81.48
43707;BME280;61348;53.392;-6.248;2023-03-03T11:12:38;102511.63;;;6.91;81.38
43707;BME280;61348;53.392;-6.248;2023-03-03T11:21:05;102517.13;;;6.91;81.67
43707;BME280;61348;53.392;-6.248;2023-03-03T11:29:12;102520.44;;;6.83;81.72
43707;BME280;61348;53.392;-6.248;2023-03-03T11:31:47;102532.84;;;6.80;81.83
43707;BME280;61348;53.392;-6.248;2023-03-03T11:37:07;102521.56;;;6.66;81.91
43707;BME280;61348;53.392;-6.248;2023-03-03T11:39:35;102524.56;;;6.55;82.08
43707;BME280;61348;53.392;-6.248;2023-03-03T11:42:14;102524.56;;;6.50;82.16
43707;BME280;61348;53.392;-6.248;2023-03-03T11:50:00;102533.06;;;6.38;nan
43707;BME280;61348;53.392;-6.248;2023-03-03T11:52:49;102541.31;;;6.28;82.85
43707;BME280;61348;53.392;-6.248;2023-03-03T11:55:26;102541.59;;;6.22;83.19
43707;BME280;61348;53.392;-6.248;2023-03-03T12:01:17;102541.31;;;6.13;83.47
43707;BME280;61348;53.392;-6.248;2023-03-03T12:09:57;102548.72;;;6.12;83.79
43707;BME280;61348;53.392;-6.248;2023-03-03T12:12:41;102534.16;;;6.12;83.99
43707;BME280;61348;53.392;-6.248;2023-03-03T12:15:21;102536.91;;;6.17;84.10
43707;BME280;61348;53.392;-6.248;2023-03-03T12:21:06;102549.88;;;6.37;84.09
43707;BME280;61348;53.392;-6.248;2023-03-03T12:26:40;102542.47;;;6.52;84.08
43707;BME280;61348;53.392;-6.248;2023-03-03T12:29:32;102536.94;;;6.62;83.77
43707;BME280;61348;53.392;-6.248;2023-03-03T12:32:17;102550.44;;;6.69;83.56
43707;BME280;61348;53.392;-6.248;2023-03-03T12:34:53;102542.19;;;6.79;83.56
43707;BME280;61348;53.392;-6.248;2023-03-03T12:40:06;102544.09;;;6.94;83.00
43707;BME280;61348;53.392;-6.248;2023-03-03T12:47:50;102540.78;;;7.02;82.95
43707;BME280;61348;53.392;-6.248;2023-03-03T12:50:29;102537.44;;;7.10;82.99
43707;BME280;61348;53.392;-6.248;2023-03-03T12:55:48;102531.09;;;7.29;82.64
43707;BME280;61348;53.392;-6.248;2023-03-03T12:58:48;102531.88;;;7.45;82.64
43707;BME280;61348;53.392;-6.248;2023-03-03T13:01:35;102528.25;;;7.50;82.49
43707;BME280;61348;53.392;-6.248;2023-03-03T13:09:32;102518.34;;;7.49;82.37
43707;BME280;61348;53.392;-6.248;2023-03-03T13:15:20;102519.75;;;7.46;81.92
43707;BME280;61348;53.392;-6.248;2023-03-03T13:21:08;102510.81;;;7.69;82.13
43707;BME280;61348;53.392;-6.248;2023-03-03T13:23:49;102516.44;;;7.98;81.93
43707;BME280;61348;53.392;-6.248;2023-03-03T13:26:37;102513.59;;;8.13;81.54
43707;BME280;61348;53.392;-6.248;2023-03-03T13:31:54;102516.56;;;8.27;81.45
43707;BME280;61348;53.392;-6.248;2023-03-03T13:37:11;102515.38;;;8.38;80.61
43707;BME280;61348;53.392;-6.248;2023-03-03T13:39:59;102503.53;;;8.37;80.54
43707;BME280;61348;53.392;-6.248;2023-03-03T13:42:39;102496.56;;;8.45;80.48
43707;BME280;61348;53.392;-6.248;2023-03-03T13:55:37;102500.44;;;8.44;78.25
43707;BME280;61348;53.392;-6.248;2023-03-03T14:00:56;102493.06;;;8.34;78.19
43707;BME280;61348;53.392;-6.248;2023-03-03T14:06:08;102488.78;;;8.52;78.12
43707;BME280;61348;53.392;-6.248;2023-03-03T14:20:47;102489.03;;;7.68;77.01
43707;BME280;61348;53.392;-6.248;2023-03-03T14:22:58;102490.47;;;7.55;76.79
43707;BME280;61348;53.392;-6.248;2023-03-03T14:28:21;102487.78;;;7.40;76.54
43707;BME280;61348;53.392;-6.248;2023-03-03T14:30:51;102486.69;;;7.36;76.83
43707;BME280;61348;53.392;-6.248;2023-03-03T14:33:22;102492.19;;;7.36;76.81
43707;BME280;61348;53.392;-6.248;2023-03-03T14:38:23;102487.25;;;7.38;76.82
43707;BME280;61348;53.392;-6.248;2023-03-03T14:41:14;102494.41;;;7.34;76.80
43707;BME280;61348;53.392;-6.248;2023-03-03T14:43:43;102484.53;;;7.33;76.81
43707;BME280;61348;53.392;-6.248;2023-03-03T14:49:03;102482.28;;;7.40;76.92
43707;BME280;61348;53.392;-6.248;2023-03-03T14:54:20;102479.50;;;7.45;76.83
43707;BME280;61348;53.392;-6.248;2023-03-03T14:59:24;102473.91;;;7.60;77.12
43707;BME280;61348;53.392;-6.248;2023-03-03T15:04:44;102476.94;;;8.08;77.10
43707;BME280;61348;53.392;-6.248;2023-03-03T15:09:53;102467.16;;;8.25;76.81
43707;BME280;61348;53.392;-6.248;2023-03-03T15:31:35;102455.03;;;8.60;75.92
43707;BME280;61348;53.392;-6.248;2023-03-03T15:42:26;102451.00;;;8.09;75.23
43707;BME280;61348;53.392;-6.248;2023-03-03T16:03:46;102460.75;;;7.47;73.97
43707;BME280;61348;53.392;-6.248;2023-03-03T16:06:23;102463.53;;;7.42;74.26
43707;BME280;61348;53.392;-6.248;2023-03-03T16:09:14;102461.91;;;7.31;74.44
43707;BME280;61348;53.392;-6.248;2023-03-03T16:11:58;102472.97;;;7.21;74.82
43707;BME280;61348;53.392;-6.248;2023-03-03T16:17:25;102479.59;;;7.15;75.33
43707;BME280;61348;53.392;-6.248;2023-03-03T16:20:48;102472.47;;;7.09;75.54
43707;BME280;61348;53.392;-6.248;2023-03-03T16:23:07;102471.94;;;7.12;75.80
43707;BME280;61348;53.392;-6.248;2023-03-03T16:26:03;102468.59;;;7.20;76.25
43707;BME280;61348;53.392;-6.248;2023-03-03T16:31:16;102479.28;;;7.31;76.43
43707;BME280;61348;53.392;-6.248;2023-03-03T16:33:49;102479.03;;;7.28;76.57
43707;BME280;61348;53.392;-6.248;2023-03-03T16:36:28;102480.13;;;7.27;76.70
43707;BME280;61348;53.392;-6.248;2023-03-03T16:39:05;102476.53;;;7.26;76.81
43707;BME280;61348;53.392;-6.248;2023-03-03T16:45:34;102476.84;;;7.20;76.83
43707;BME280;61348;53.392;-6.248;2023-03-03T16:51:12;102477.19;;;7.03;76.87
43707;BME280;61348;53.392;-6.248;2023-03-03T16:54:02;102489.00;;;6.94;76.85
43707;BME280;61348;53.392;-6.248;2023-03-03T16:56:36;102474.19;;;6.85;77.09
43707;BME280;61348;53.392;-6.248;2023-03-03T16:59:23;102475.03;;;6.85;77.24
43707;BME280;61348;53.392;-6.248;2023-03-03T17:04:54;102472.53;;;6.73;77.22
43707;BME280;61348;53.392;-6.248;2023-03-03T17:10:27;102472.00;;;6.66;77.28
43707;BME280;61348;53.392;-6.248;2023-03-03T17:21:00;102472.00;;;6.51;77.50
43707;BME280;61348;53.392;-6.248;2023-03-03T17:34:02;102496.22;;;6.34;77.99
43707;BME280;61348;53.392;-6.248;2023-03-03T17:42:20;102502.28;;;6.31;77.80
43707;BME280;61348;53.392;-6.248;2023-03-03T17:45:12;102506.69;;;6.32;77.60
43707;BME280;61348;53.392;-6.248;2023-03-03T17:47:45;102514.13;;;6.37;77.79
43707;BME280;61348;53.392;-6.248;2023-03-03T17:50:22;102508.31;;;6.38;77.76
43707;BME280;61348;53.392;-6.248;2023-03-03T17:53:03;102508.31;;;6.38;77.99
43707;BME280;61348;53.392;-6.248;2023-03-03T17:55:55;102509.69;;;6.36;78.01
43707;BME280;61348;53.392;-6.248;2023-03-03T18:01:33;102508.59;;;6.32;78.14
43707;BME280;61348;53.392;-6.248;2023-03-03T18:07:20;102511.66;;;6.35;78.28
43707;BME280;61348;53.392;-6.248;2023-03-03T18:25:59;102538.31;;;6.45;79.29
43707;BME280;61348;53.392;-6.248;2023-03-03T18:28:45;102539.97;;;6.41;79.24
43707;BME280;61348;53.392;-6.248;2023-03-03T18:31:42;102537.50;;;6.39;79.53
43707;BME280;61348;53.392;-6.248;2023-03-03T18:36:59;102535.03;;;6.38;79.58